sensor_id;sensor_type;location;lat;lon;timestamp;P1;durP1;ratioP1;P2;durP2;ratioP2
19814;SDS011;10067;53.092;8.800;2024-03-06T00:00:47;21.40;;;14.50;;
19814;SDS011;10067;53.092;8.800;2024-03-06T00:03:14;18.87;;;13.20;;
19814;SDS011;10067;53.092;8.800;2024-03-06T00:05:41;21.23;;;14.30;;
19814;SDS011;10067;53.092;8.800;2024-03-06T00:08:07;21.33;;;14.03;;
19814;SDS011;10067;53.092;8.800;2024-03-06T00:10:33;21.63;;;13.57;;
19814;SDS011;10067;53.092;8.800;2024-03-06T00:13:01;22.63;;;14.17;;
19814;SDS011;10067;53.092;8.800;2024-03-06T00:15:29;24.60;;;15.07;;
19814;SDS011;10067;53.092;8.800;2024-03-06T00:17:55;24.27;;;14.30;;
19814;SDS011;10067;53.092;8.800;2024-03-06T00:20:23;18.70;;;13.50;;
19814;SDS011;10067;53.092;8.800;2024-03-06T00:22:50;25.20;;;14.80;;
19814;SDS011;10067;53.092;8.800;2024-03-06T00:25:16;27.17;;;14.90;;
19814;SDS011;10067;53.092;8.800;2024-03-06T00:27:42;23.90;;;14.03;;
19814;SDS011;10067;53.092;8.800;2024-03-06T00:30:09;22.63;;;14.70;;
19814;SDS011;10067;53.092;8.800;2024-03-06T00:32:37;24.97;;;15.40;;
19814;SDS011;10067;53.092;8.800;2024-03-06T00:35:03;21.33;;;14.23;;
19814;SDS011;10067;53.092;8.800;2024-03-06T00:37:30;22.90;;;15.37;;
19814;SDS011;10067;53.092;8.800;2024-03-06T00:39:57;23.70;;;14.80;;
19814;SDS011;10067;53.092;8.800;2024-03-06T00:42:23;23.03;;;14.63;;
19814;SDS011;10067;53.092;8.800;2024-03-06T00:44:50;24.03;;;15.20;;
19814;SDS011;10067;53.092;8.800;2024-03-06T00:47:16;24.63;;;14.73;;
19814;SDS011;10067;53.092;8.800;2024-03-06T00:49:44;21.97;;;14.13;;
19814;SDS011;10067;53.092;8.800;2024-03-06T00:52:10;19.77;;;13.20;;
19814;SDS011;10067;53.092;8.800;2024-03-06T00:54:37;23.30;;;14.07;;
19814;SDS011;10067;53.092;8.800;2024-03-06T00:57:04;23.33;;;14.33;;
19814;SDS011;10067;53.092;8.800;2024-03-06T00:59:31;23.17;;;14.43;;
19814;SDS011;10067;53.092;8.800;2024-03-06T01:01:57;23.83;;;14.47;;
19814;SDS011;10067;53.092;8.800;2024-03-06T01:04:23;21.80;;;15.13;;
19814;SDS011;10067;53.092;8.800;2024-03-06T01:06:51;21.57;;;14.27;;
19814;SDS011;10067;53.092;8.800;2024-03-06T01:09:17;22.53;;;14.93;;
19814;SDS011;10067;53.092;8.800;2024-03-06T01:11:44;24.73;;;15.60;;
19814;SDS011;10067;53.092;8.800;2024-03-06T01:14:12;21.93;;;14.63;;
19814;SDS011;10067;53.092;8.800;2024-03-06T01:16:38;21.83;;;15.23;;
19814;SDS011;10067;53.092;8.800;2024-03-06T01:19:05;24.30;;;15.33;;
19814;SDS011;10067;53.092;8.800;2024-03-06T01:21:31;25.80;;;15.13;;
19814;SDS011;10067;53.092;8.800;2024-03-06T01:24:00;25.43;;;15.00;;
19814;SDS011;10067;53.092;8.800;2024-03-06T01:26:27;26.07;;;15.70;;
19814;SDS011;10067;53.092;8.800;2024-03-06T01:28:53;30.03;;;16.97;;
19814;SDS011;10067;53.092;8.800;2024-03-06T01:31:20;24.73;;;14.77;;
19814;SDS011;10067;53.092;8.800;2024-03-06T01:33:46;22.87;;;15.37;;
19814;SDS011;10067;53.092;8.800;2024-03-06T01:36:12;20.73;;;14.47;;
19814;SDS011;10067;53.092;8.800;2024-03-06T01:38:39;20.23;;;13.80;;
19814;SDS011;10067;53.092;8.800;2024-03-06T01:41:08;25.10;;;14.37;;
19814;SDS011;10067;53.092;8.800;2024-03-06T01:43:36;24.00;;;15.53;;
19814;SDS011;10067;53.092;8.800;2024-03-06T01:46:03;22.70;;;14.73;;
19814;SDS011;10067;53.092;8.800;2024-03-06T01:48:29;19.70;;;14.20;;
19814;SDS011;10067;53.092;8.800;2024-03-06T01:50:57;22.50;;;15.37;;
19814;SDS011;10067;53.092;8.800;2024-03-06T01:53:25;22.83;;;15.17;;
19814;SDS011;10067;53.092;8.800;2024-03-06T01:55:53;25.23;;;15.13;;
19814;SDS011;10067;53.092;8.800;2024-03-06T01:58:21;27.17;;;16.43;;
19814;SDS011;10067;53.092;8.800;2024-03-06T02:00:47;21.27;;;14.93;;
19814;SDS011;10067;53.092;8.800;2024-03-06T02:03:15;23.53;;;15.10;;
19814;SDS011;10067;53.092;8.800;2024-03-06T02:05:41;23.57;;;14.43;;
19814;SDS011;10067;53.092;8.800;2024-03-06T02:08:08;23.63;;;15.10;;
19814;SDS011;10067;53.092;8.800;2024-03-06T02:10:34;27.40;;;16.20;;
19814;SDS011;10067;53.092;8.800;2024-03-06T02:13:01;25.10;;;15.77;;
19814;SDS011;10067;53.092;8.800;2024-03-06T02:15:29;24.53;;;15.47;;
19814;SDS011;10067;53.092;8.800;2024-03-06T02:17:55;25.67;;;14.10;;
19814;SDS011;10067;53.092;8.800;2024-03-06T02:20:23;25.13;;;15.77;;
19814;SDS011;10067;53.092;8.800;2024-03-06T02:22:50;24.13;;;14.83;;
19814;SDS011;10067;53.092;8.800;2024-03-06T02:25:16;23.97;;;15.07;;
19814;SDS011;10067;53.092;8.800;2024-03-06T02:27:44;24.87;;;15.33;;
19814;SDS011;10067;53.092;8.800;2024-03-06T02:30:10;23.20;;;14.47;;
19814;SDS011;10067;53.092;8.800;2024-03-06T02:32:37;21.53;;;15.10;;
19814;SDS011;10067;53.092;8.800;2024-03-06T02:35:03;25.87;;;14.77;;
19814;SDS011;10067;53.092;8.800;2024-03-06T02:37:34;21.20;;;14.93;;
19814;SDS011;10067;53.092;8.800;2024-03-06T02:40:01;23.67;;;15.23;;
19814;SDS011;10067;53.092;8.800;2024-03-06T02:42:28;23.10;;;14.73;;
19814;SDS011;10067;53.092;8.800;2024-03-06T02:44:54;25.53;;;15.60;;
19814;SDS011;10067;53.092;8.800;2024-03-06T02:47:21;23.97;;;15.23;;
19814;SDS011;10067;53.092;8.800;2024-03-06T02:49:47;21.27;;;15.03;;
19814;SDS011;10067;53.092;8.800;2024-03-06T02:52:13;26.47;;;15.13;;
19814;SDS011;10067;53.092;8.800;2024-03-06T02:54:41;22.87;;;15.03;;
19814;SDS011;10067;53.092;8.800;2024-03-06T02:57:08;26.43;;;14.87;;
19814;SDS011;10067;53.092;8.800;2024-03-06T02:59:34;28.17;;;16.63;;
19814;SDS011;10067;53.092;8.800;2024-03-06T03:02:01;21.77;;;14.77;;
19814;SDS011;10067;53.092;8.800;2024-03-06T03:04:28;22.93;;;14.37;;
19814;SDS011;10067;53.092;8.800;2024-03-06T03:06:54;21.93;;;14.97;;
19814;SDS011;10067;53.092;8.800;2024-03-06T03:09:21;25.10;;;16.10;;
19814;SDS011;10067;53.092;8.800;2024-03-06T03:11:49;24.20;;;15.00;;
19814;SDS011;10067;53.092;8.800;2024-03-06T03:14:16;22.17;;;15.40;;
19814;SDS011;10067;53.092;8.800;2024-03-06T03:16:42;24.53;;;15.77;;
19814;SDS011;10067;53.092;8.800;2024-03-06T03:19:09;23.97;;;15.80;;
19814;SDS011;10067;53.092;8.800;2024-03-06T03:21:35;24.77;;;15.87;;
19814;SDS011;10067;53.092;8.800;2024-03-06T03:24:01;23.23;;;15.67;;
19814;SDS011;10067;53.092;8.800;2024-03-06T03:26:28;32.33;;;16.07;;
19814;SDS011;10067;53.092;8.800;2024-03-06T03:28:55;22.13;;;15.07;;
19814;SDS011;10067;53.092;8.800;2024-03-06T03:31:22;23.43;;;15.47;;
19814;SDS011;10067;53.092;8.800;2024-03-06T03:33:48;23.13;;;15.60;;
19814;SDS011;10067;53.092;8.800;2024-03-06T03:36:15;21.63;;;15.03;;
19814;SDS011;10067;53.092;8.800;2024-03-06T03:38:41;25.43;;;16.23;;
19814;SDS011;10067;53.092;8.800;2024-03-06T03:41:07;26.83;;;15.93;;
19814;SDS011;10067;53.092;8.800;2024-03-06T03:43:35;24.63;;;16.27;;
19814;SDS011;10067;53.092;8.800;2024-03-06T03:46:03;21.87;;;15.10;;
19814;SDS011;10067;53.092;8.800;2024-03-06T03:48:31;22.87;;;15.63;;
19814;SDS011;10067;53.092;8.800;2024-03-06T03:51:00;27.60;;;16.97;;
19814;SDS011;10067;53.092;8.800;2024-03-06T03:53:27;24.80;;;16.33;;
19814;SDS011;10067;53.092;8.800;2024-03-06T03:55:53;26.47;;;16.57;;
19814;SDS011;10067;53.092;8.800;2024-03-06T03:58:20;28.53;;;16.83;;
19814;SDS011;10067;53.092;8.800;2024-03-06T04:00:46;26.60;;;16.27;;
19814;SDS011;10067;53.092;8.800;2024-03-06T04:03:14;23.73;;;15.80;;
19814;SDS011;10067;53.092;8.800;2024-03-06T04:05:40;22.87;;;16.07;;
19814;SDS011;10067;53.092;8.800;2024-03-06T04:08:06;26.10;;;15.80;;
19814;SDS011;10067;53.092;8.800;2024-03-06T04:10:33;26.07;;;16.73;;
19814;SDS011;10067;53.092;8.800;2024-03-06T04:12:59;26.10;;;16.00;;
19814;SDS011;10067;53.092;8.800;2024-03-06T04:15:26;26.10;;;16.93;;
19814;SDS011;10067;53.092;8.800;2024-03-06T04:17:53;26.23;;;16.83;;
19814;SDS011;10067;53.092;8.800;2024-03-06T04:20:20;26.80;;;15.93;;
19814;SDS011;10067;53.092;8.800;2024-03-06T04:22:47;23.23;;;14.97;;
19814;SDS011;10067;53.092;8.800;2024-03-06T04:25:16;21.23;;;14.93;;
19814;SDS011;10067;53.092;8.800;2024-03-06T04:27:42;30.93;;;16.33;;
19814;SDS011;10067;53.092;8.800;2024-03-06T04:30:09;26.10;;;16.63;;
19814;SDS011;10067;53.092;8.800;2024-03-06T04:32:35;26.07;;;16.37;;
19814;SDS011;10067;53.092;8.800;2024-03-06T04:35:01;26.73;;;15.63;;
19814;SDS011;10067;53.092;8.800;2024-03-06T04:37:29;26.73;;;16.67;;
19814;SDS011;10067;53.092;8.800;2024-03-06T04:39:56;26.83;;;16.20;;
19814;SDS011;10067;53.092;8.800;2024-03-06T04:42:22;26.87;;;16.30;;
19814;SDS011;10067;53.092;8.800;2024-03-06T04:44:48;21.00;;;14.83;;
19814;SDS011;10067;53.092;8.800;2024-03-06T04:47:15;22.87;;;15.33;;
19814;SDS011;10067;53.092;8.800;2024-03-06T04:49:41;24.40;;;15.27;;
19814;SDS011;10067;53.092;8.800;2024-03-06T04:52:08;22.17;;;15.80;;
19814;SDS011;10067;53.092;8.800;2024-03-06T04:54:35;25.73;;;16.43;;
19814;SDS011;10067;53.092;8.800;2024-03-06T04:57:02;22.30;;;15.00;;
19814;SDS011;10067;53.092;8.800;2024-03-06T04:59:28;23.67;;;16.07;;
19814;SDS011;10067;53.092;8.800;2024-03-06T05:01:55;23.60;;;16.23;;
19814;SDS011;10067;53.092;8.800;2024-03-06T05:04:21;29.00;;;16.67;;
19814;SDS011;10067;53.092;8.800;2024-03-06T05:06:47;25.87;;;16.20;;
19814;SDS011;10067;53.092;8.800;2024-03-06T05:09:14;21.60;;;15.03;;
19814;SDS011;10067;53.092;8.800;2024-03-06T05:11:41;23.30;;;15.97;;
19814;SDS011;10067;53.092;8.800;2024-03-06T05:14:08;26.53;;;15.60;;
19814;SDS011;10067;53.092;8.800;2024-03-06T05:16:34;23.77;;;16.13;;
19814;SDS011;10067;53.092;8.800;2024-03-06T05:19:01;23.47;;;15.60;;
19814;SDS011;10067;53.092;8.800;2024-03-06T05:21:27;24.23;;;15.30;;
19814;SDS011;10067;53.092;8.800;2024-03-06T05:23:53;22.03;;;14.80;;
19814;SDS011;10067;53.092;8.800;2024-03-06T05:26:20;24.77;;;15.87;;
19814;SDS011;10067;53.092;8.800;2024-03-06T05:28:47;23.93;;;15.37;;
19814;SDS011;10067;53.092;8.800;2024-03-06T05:31:17;23.57;;;15.40;;
19814;SDS011;10067;53.092;8.800;2024-03-06T05:33:44;25.03;;;15.50;;
19814;SDS011;10067;53.092;8.800;2024-03-06T05:36:10;24.27;;;15.33;;
19814;SDS011;10067;53.092;8.800;2024-03-06T05:38:38;26.57;;;17.03;;
19814;SDS011;10067;53.092;8.800;2024-03-06T05:41:04;24.27;;;16.33;;
19814;SDS011;10067;53.092;8.800;2024-03-06T05:43:30;24.40;;;15.13;;
19814;SDS011;10067;53.092;8.800;2024-03-06T05:45:58;24.03;;;15.57;;
19814;SDS011;10067;53.092;8.800;2024-03-06T05:48:25;24.43;;;15.33;;
19814;SDS011;10067;53.092;8.800;2024-03-06T05:50:52;25.20;;;16.20;;
19814;SDS011;10067;53.092;8.800;2024-03-06T05:53:18;30.23;;;16.83;;
19814;SDS011;10067;53.092;8.800;2024-03-06T05:55:44;23.70;;;16.07;;
19814;SDS011;10067;53.092;8.800;2024-03-06T05:58:11;26.80;;;17.30;;
19814;SDS011;10067;53.092;8.800;2024-03-06T06:00:37;28.60;;;17.30;;
19814;SDS011;10067;53.092;8.800;2024-03-06T06:03:05;24.10;;;16.20;;
19814;SDS011;10067;53.092;8.800;2024-03-06T06:05:33;28.57;;;18.50;;
19814;SDS011;10067;53.092;8.800;2024-03-06T06:08:00;27.03;;;17.67;;
19814;SDS011;10067;53.092;8.800;2024-03-06T06:10:27;23.97;;;17.03;;
19814;SDS011;10067;53.092;8.800;2024-03-06T06:12:53;26.37;;;16.60;;
19814;SDS011;10067;53.092;8.800;2024-03-06T06:15:19;24.47;;;15.93;;
19814;SDS011;10067;53.092;8.800;2024-03-06T06:17:46;30.33;;;16.93;;
19814;SDS011;10067;53.092;8.800;2024-03-06T06:20:14;26.97;;;17.87;;
19814;SDS011;10067;53.092;8.800;2024-03-06T06:22:41;26.43;;;16.03;;
19814;SDS011;10067;53.092;8.800;2024-03-06T06:25:07;30.97;;;17.67;;
19814;SDS011;10067;53.092;8.800;2024-03-06T06:27:35;33.57;;;21.33;;
19814;SDS011;10067;53.092;8.800;2024-03-06T06:30:01;46.17;;;28.90;;
19814;SDS011;10067;53.092;8.800;2024-03-06T06:32:27;37.70;;;22.83;;
19814;SDS011;10067;53.092;8.800;2024-03-06T06:34:54;36.33;;;22.00;;
19814;SDS011;10067;53.092;8.800;2024-03-06T06:37:22;37.10;;;24.23;;
19814;SDS011;10067;53.092;8.800;2024-03-06T06:39:48;27.93;;;18.53;;
19814;SDS011;10067;53.092;8.800;2024-03-06T06:42:15;30.33;;;18.83;;
19814;SDS011;10067;53.092;8.800;2024-03-06T06:44:41;34.80;;;19.20;;
19814;SDS011;10067;53.092;8.800;2024-03-06T06:47:08;28.87;;;17.23;;
19814;SDS011;10067;53.092;8.800;2024-03-06T06:49:34;29.20;;;17.63;;
19814;SDS011;10067;53.092;8.800;2024-03-06T06:52:00;27.63;;;18.23;;
19814;SDS011;10067;53.092;8.800;2024-03-06T06:54:28;27.90;;;17.47;;
19814;SDS011;10067;53.092;8.800;2024-03-06T06:56:54;28.97;;;17.63;;
19814;SDS011;10067;53.092;8.800;2024-03-06T06:59:21;30.40;;;18.23;;
19814;SDS011;10067;53.092;8.800;2024-03-06T07:01:48;25.37;;;17.53;;
19814;SDS011;10067;53.092;8.800;2024-03-06T07:04:14;31.37;;;17.43;;
19814;SDS011;10067;53.092;8.800;2024-03-06T07:06:42;28.13;;;18.00;;
19814;SDS011;10067;53.092;8.800;2024-03-06T07:09:09;26.43;;;17.07;;
19814;SDS011;10067;53.092;8.800;2024-03-06T07:11:37;28.90;;;18.27;;
19814;SDS011;10067;53.092;8.800;2024-03-06T07:14:04;26.50;;;18.20;;
19814;SDS011;10067;53.092;8.800;2024-03-06T07:16:30;29.60;;;17.20;;
19814;SDS011;10067;53.092;8.800;2024-03-06T07:18:56;28.17;;;17.57;;
19814;SDS011;10067;53.092;8.800;2024-03-06T07:21:24;28.20;;;16.23;;
19814;SDS011;10067;53.092;8.800;2024-03-06T07:23:51;28.67;;;16.33;;
19814;SDS011;10067;53.092;8.800;2024-03-06T07:26:17;27.13;;;16.80;;
19814;SDS011;10067;53.092;8.800;2024-03-06T07:28:45;26.47;;;18.00;;
19814;SDS011;10067;53.092;8.800;2024-03-06T07:31:11;28.20;;;18.10;;
19814;SDS011;10067;53.092;8.800;2024-03-06T07:33:38;28.10;;;17.30;;
19814;SDS011;10067;53.092;8.800;2024-03-06T07:36:04;38.07;;;22.07;;
19814;SDS011;10067;53.092;8.800;2024-03-06T07:38:31;26.33;;;17.77;;
19814;SDS011;10067;53.092;8.800;2024-03-06T07:40:57;28.53;;;17.13;;
19814;SDS011;10067;53.092;8.800;2024-03-06T07:43:23;33.77;;;19.10;;
19814;SDS011;10067;53.092;8.800;2024-03-06T07:45:51;29.17;;;18.93;;
19814;SDS011;10067;53.092;8.800;2024-03-06T07:48:18;28.20;;;18.33;;
19814;SDS011;10067;53.092;8.800;2024-03-06T07:50:44;26.77;;;18.87;;
19814;SDS011;10067;53.092;8.800;2024-03-06T07:53:11;30.43;;;19.27;;
19814;SDS011;10067;53.092;8.800;2024-03-06T07:55:37;33.13;;;20.20;;
19814;SDS011;10067;53.092;8.800;2024-03-06T07:58:04;26.43;;;17.47;;
19814;SDS011;10067;53.092;8.800;2024-03-06T08:00:30;30.30;;;19.03;;
19814;SDS011;10067;53.092;8.800;2024-03-06T08:03:00;28.17;;;17.20;;
19814;SDS011;10067;53.092;8.800;2024-03-06T08:05:27;32.20;;;18.27;;
19814;SDS011;10067;53.092;8.800;2024-03-06T08:07:54;25.23;;;17.60;;
19814;SDS011;10067;53.092;8.800;2024-03-06T08:10:20;30.70;;;19.13;;
19814;SDS011;10067;53.092;8.800;2024-03-06T08:12:46;27.47;;;18.17;;
19814;SDS011;10067;53.092;8.800;2024-03-06T08:15:14;28.60;;;18.87;;
19814;SDS011;10067;53.092;8.800;2024-03-06T08:17:41;25.50;;;17.10;;
19814;SDS011;10067;53.092;8.800;2024-03-06T08:20:09;30.97;;;18.73;;
19814;SDS011;10067;53.092;8.800;2024-03-06T08:22:38;28.23;;;17.33;;
19814;SDS011;10067;53.092;8.800;2024-03-06T08:25:05;30.80;;;17.87;;
19814;SDS011;10067;53.092;8.800;2024-03-06T08:27:32;27.53;;;18.23;;
19814;SDS011;10067;53.092;8.800;2024-03-06T08:29:58;29.40;;;17.90;;
19814;SDS011;10067;53.092;8.800;2024-03-06T08:32:24;30.43;;;17.97;;
19814;SDS011;10067;53.092;8.800;2024-03-06T08:34:51;26.90;;;17.70;;
19814;SDS011;10067;53.092;8.800;2024-03-06T08:37:18;26.07;;;17.07;;
19814;SDS011;10067;53.092;8.800;2024-03-06T08:39:45;28.83;;;17.47;;
19814;SDS011;10067;53.092;8.800;2024-03-06T08:42:13;31.30;;;17.73;;
19814;SDS011;10067;53.092;8.800;2024-03-06T08:44:43;28.17;;;16.80;;
19814;SDS011;10067;53.092;8.800;2024-03-06T08:47:09;25.37;;;17.33;;
19814;SDS011;10067;53.092;8.800;2024-03-06T08:49:36;27.27;;;16.67;;
19814;SDS011;10067;53.092;8.800;2024-03-06T08:52:02;27.63;;;17.33;;
19814;SDS011;10067;53.092;8.800;2024-03-06T08:54:30;27.13;;;17.50;;
19814;SDS011;10067;53.092;8.800;2024-03-06T08:56:57;27.70;;;17.20;;
19814;SDS011;10067;53.092;8.800;2024-03-06T08:59:24;29.70;;;17.13;;
19814;SDS011;10067;53.092;8.800;2024-03-06T09:01:51;24.60;;;17.03;;
19814;SDS011;10067;53.092;8.800;2024-03-06T09:04:19;30.43;;;19.27;;
19814;SDS011;10067;53.092;8.800;2024-03-06T09:06:45;33.17;;;17.93;;
19814;SDS011;10067;53.092;8.800;2024-03-06T09:09:11;26.70;;;16.90;;
19814;SDS011;10067;53.092;8.800;2024-03-06T09:11:41;31.53;;;17.50;;
19814;SDS011;10067;53.092;8.800;2024-03-06T09:14:07;25.40;;;16.33;;
19814;SDS011;10067;53.092;8.800;2024-03-06T09:16:34;26.60;;;17.37;;
19814;SDS011;10067;53.092;8.800;2024-03-06T09:19:00;27.10;;;17.23;;
19814;SDS011;10067;53.092;8.800;2024-03-06T09:21:27;25.07;;;16.40;;
19814;SDS011;10067;53.092;8.800;2024-03-06T09:23:53;28.07;;;17.17;;
19814;SDS011;10067;53.092;8.800;2024-03-06T09:26:19;24.67;;;16.37;;
19814;SDS011;10067;53.092;8.800;2024-03-06T09:28:48;23.60;;;16.60;;
19814;SDS011;10067;53.092;8.800;2024-03-06T09:31:15;25.20;;;16.57;;
19814;SDS011;10067;53.092;8.800;2024-03-06T09:33:41;25.50;;;17.83;;
19814;SDS011;10067;53.092;8.800;2024-03-06T09:36:10;23.63;;;15.97;;
19814;SDS011;10067;53.092;8.800;2024-03-06T09:38:38;26.43;;;16.20;;
19814;SDS011;10067;53.092;8.800;2024-03-06T09:41:05;28.93;;;17.80;;
19814;SDS011;10067;53.092;8.800;2024-03-06T09:43:32;29.07;;;17.47;;
19814;SDS011;10067;53.092;8.800;2024-03-06T09:45:59;32.43;;;20.60;;
19814;SDS011;10067;53.092;8.800;2024-03-06T09:48:27;30.33;;;19.40;;
19814;SDS011;10067;53.092;8.800;2024-03-06T09:50:54;32.83;;;18.17;;
19814;SDS011;10067;53.092;8.800;2024-03-06T09:53:23;24.20;;;17.40;;
19814;SDS011;10067;53.092;8.800;2024-03-06T09:55:50;27.57;;;17.33;;
19814;SDS011;10067;53.092;8.800;2024-03-06T09:58:16;30.48;;;18.48;;
19814;SDS011;10067;53.092;8.800;2024-03-06T10:00:43;25.53;;;16.70;;
19814;SDS011;10067;53.092;8.800;2024-03-06T10:03:13;26.52;;;16.58;;
19814;SDS011;10067;53.092;8.800;2024-03-06T10:05:39;26.73;;;17.67;;
19814;SDS011;10067;53.092;8.800;2024-03-06T10:08:08;27.90;;;18.07;;
19814;SDS011;10067;53.092;8.800;2024-03-06T10:10:35;24.87;;;16.47;;
19814;SDS011;10067;53.092;8.800;2024-03-06T10:13:01;27.27;;;16.65;;
19814;SDS011;10067;53.092;8.800;2024-03-06T10:15:28;29.17;;;16.55;;
19814;SDS011;10067;53.092;8.800;2024-03-06T10:20:37;26.87;;;18.23;;
19814;SDS011;10067;53.092;8.800;2024-03-06T10:23:03;28.37;;;18.53;;
19814;SDS011;10067;53.092;8.800;2024-03-06T10:25:30;28.00;;;18.57;;
19814;SDS011;10067;53.092;8.800;2024-03-06T10:28:03;24.15;;;16.35;;
19814;SDS011;10067;53.092;8.800;2024-03-06T10:30:30;28.05;;;17.55;;
19814;SDS011;10067;53.092;8.800;2024-03-06T10:32:58;28.70;;;18.63;;
19814;SDS011;10067;53.092;8.800;2024-03-06T10:35:24;26.95;;;17.85;;
19814;SDS011;10067;53.092;8.800;2024-03-06T10:37:52;30.13;;;18.88;;
19814;SDS011;10067;53.092;8.800;2024-03-06T10:40:20;31.07;;;20.03;;
19814;SDS011;10067;53.092;8.800;2024-03-06T10:42:46;35.15;;;19.80;;
19814;SDS011;10067;53.092;8.800;2024-03-06T10:45:13;27.95;;;18.20;;
19814;SDS011;10067;53.092;8.800;2024-03-06T10:47:41;26.25;;;18.70;;
19814;SDS011;10067;53.092;8.800;2024-03-06T10:50:12;31.33;;;18.63;;
19814;SDS011;10067;53.092;8.800;2024-03-06T10:52:40;28.73;;;18.40;;
19814;SDS011;10067;53.092;8.800;2024-03-06T10:55:08;28.52;;;19.02;;
19814;SDS011;10067;53.092;8.800;2024-03-06T10:57:35;31.20;;;18.88;;
19814;SDS011;10067;53.092;8.800;2024-03-06T11:00:02;30.60;;;18.95;;
19814;SDS011;10067;53.092;8.800;2024-03-06T11:02:31;30.40;;;19.38;;
19814;SDS011;10067;53.092;8.800;2024-03-06T11:04:58;26.42;;;18.33;;
19814;SDS011;10067;53.092;8.800;2024-03-06T11:07:24;28.67;;;19.00;;
19814;SDS011;10067;53.092;8.800;2024-03-06T11:09:52;28.50;;;19.38;;
19814;SDS011;10067;53.092;8.800;2024-03-06T11:12:33;31.05;;;19.48;;
19814;SDS011;10067;53.092;8.800;2024-03-06T11:15:01;34.58;;;19.45;;
19814;SDS011;10067;53.092;8.800;2024-03-06T11:17:34;30.20;;;19.42;;
19814;SDS011;10067;53.092;8.800;2024-03-06T11:28:20;34.20;;;22.40;;
19814;SDS011;10067;53.092;8.800;2024-03-06T11:30:47;29.00;;;21.25;;
19814;SDS011;10067;53.092;8.800;2024-03-06T11:33:14;35.20;;;21.30;;
19814;SDS011;10067;53.092;8.800;2024-03-06T11:35:41;43.17;;;28.02;;
19814;SDS011;10067;53.092;8.800;2024-03-06T11:38:09;30.50;;;19.73;;
19814;SDS011;10067;53.092;8.800;2024-03-06T11:40:42;26.35;;;18.58;;
19814;SDS011;10067;53.092;8.800;2024-03-06T11:43:25;26.52;;;18.98;;
19814;SDS011;10067;53.092;8.800;2024-03-06T11:45:52;35.38;;;19.30;;
19814;SDS011;10067;53.092;8.800;2024-03-06T11:48:18;35.38;;;22.08;;
19814;SDS011;10067;53.092;8.800;2024-03-06T11:50:46;39.45;;;26.67;;
19814;SDS011;10067;53.092;8.800;2024-03-06T11:53:13;28.40;;;18.95;;
19814;SDS011;10067;53.092;8.800;2024-03-06T11:55:39;29.88;;;16.92;;
19814;SDS011;10067;53.092;8.800;2024-03-06T11:58:06;24.40;;;16.83;;
19814;SDS011;10067;53.092;8.800;2024-03-06T12:00:34;32.28;;;23.00;;
19814;SDS011;10067;53.092;8.800;2024-03-06T12:03:01;25.98;;;16.42;;
19814;SDS011;10067;53.092;8.800;2024-03-06T12:05:29;26.25;;;19.15;;
19814;SDS011;10067;53.092;8.800;2024-03-06T12:07:55;27.05;;;17.63;;
19814;SDS011;10067;53.092;8.800;2024-03-06T12:10:22;25.45;;;17.02;;
19814;SDS011;10067;53.092;8.800;2024-03-06T12:12:48;30.33;;;16.17;;
19814;SDS011;10067;53.092;8.800;2024-03-06T12:15:14;27.75;;;16.52;;
19814;SDS011;10067;53.092;8.800;2024-03-06T12:17:43;26.10;;;15.27;;
19814;SDS011;10067;53.092;8.800;2024-03-06T12:20:11;24.67;;;16.77;;
19814;SDS011;10067;53.092;8.800;2024-03-06T12:22:43;23.25;;;16.83;;
19814;SDS011;10067;53.092;8.800;2024-03-06T12:25:10;21.02;;;15.27;;
19814;SDS011;10067;53.092;8.800;2024-03-06T12:27:36;27.52;;;15.70;;
19814;SDS011;10067;53.092;8.800;2024-03-06T12:30:07;21.48;;;15.68;;
19814;SDS011;10067;53.092;8.800;2024-03-06T12:32:34;29.27;;;19.67;;
19814;SDS011;10067;53.092;8.800;2024-03-06T12:35:02;23.30;;;15.88;;
19814;SDS011;10067;53.092;8.800;2024-03-06T12:37:29;24.55;;;19.17;;
19814;SDS011;10067;53.092;8.800;2024-03-06T12:39:56;23.70;;;15.63;;
19814;SDS011;10067;53.092;8.800;2024-03-06T12:42:22;27.90;;;16.45;;
19814;SDS011;10067;53.092;8.800;2024-03-06T12:44:49;19.27;;;14.73;;
19814;SDS011;10067;53.092;8.800;2024-03-06T12:47:15;29.73;;;15.77;;
19814;SDS011;10067;53.092;8.800;2024-03-06T12:49:42;22.73;;;14.75;;
19814;SDS011;10067;53.092;8.800;2024-03-06T12:52:10;21.73;;;16.23;;
19814;SDS011;10067;53.092;8.800;2024-03-06T12:54:36;23.05;;;15.30;;
19814;SDS011;10067;53.092;8.800;2024-03-06T12:57:02;20.58;;;14.48;;
19814;SDS011;10067;53.092;8.800;2024-03-06T12:59:29;21.52;;;15.10;;
19814;SDS011;10067;53.092;8.800;2024-03-06T13:01:55;24.38;;;14.57;;
19814;SDS011;10067;53.092;8.800;2024-03-06T13:04:22;23.15;;;15.45;;
19814;SDS011;10067;53.092;8.800;2024-03-06T13:06:48;24.30;;;14.50;;
19814;SDS011;10067;53.092;8.800;2024-03-06T13:09:16;22.38;;;14.00;;
19814;SDS011;10067;53.092;8.800;2024-03-06T13:11:43;20.95;;;15.07;;
19814;SDS011;10067;53.092;8.800;2024-03-06T13:14:09;23.85;;;15.98;;
19814;SDS011;10067;53.092;8.800;2024-03-06T13:16:36;19.17;;;15.48;;
19814;SDS011;10067;53.092;8.800;2024-03-06T13:19:03;24.50;;;16.77;;
19814;SDS011;10067;53.092;8.800;2024-03-06T13:21:29;20.00;;;15.77;;
19814;SDS011;10067;53.092;8.800;2024-03-06T13:23:56;23.58;;;15.15;;
19814;SDS011;10067;53.092;8.800;2024-03-06T13:26:24;25.90;;;16.08;;
19814;SDS011;10067;53.092;8.800;2024-03-06T13:28:50;21.80;;;15.80;;
19814;SDS011;10067;53.092;8.800;2024-03-06T13:31:17;23.92;;;17.35;;
19814;SDS011;10067;53.092;8.800;2024-03-06T13:33:43;21.38;;;16.83;;
19814;SDS011;10067;53.092;8.800;2024-03-06T13:36:10;25.33;;;15.85;;
19814;SDS011;10067;53.092;8.800;2024-03-06T13:38:36;24.67;;;18.17;;
19814;SDS011;10067;53.092;8.800;2024-03-06T13:41:03;25.10;;;17.20;;
19814;SDS011;10067;53.092;8.800;2024-03-06T13:43:31;23.95;;;17.17;;
19814;SDS011;10067;53.092;8.800;2024-03-06T13:45:58;24.25;;;16.73;;
19814;SDS011;10067;53.092;8.800;2024-03-06T13:48:24;26.70;;;16.95;;
19814;SDS011;10067;53.092;8.800;2024-03-06T13:50:51;26.08;;;16.73;;
19814;SDS011;10067;53.092;8.800;2024-03-06T13:53:17;27.30;;;16.90;;
19814;SDS011;10067;53.092;8.800;2024-03-06T13:55:43;23.13;;;17.38;;
19814;SDS011;10067;53.092;8.800;2024-03-06T13:58:10;25.42;;;17.63;;
19814;SDS011;10067;53.092;8.800;2024-03-06T14:00:39;25.20;;;17.00;;
19814;SDS011;10067;53.092;8.800;2024-03-06T14:03:05;26.50;;;17.73;;
19814;SDS011;10067;53.092;8.800;2024-03-06T14:05:32;24.85;;;17.42;;
19814;SDS011;10067;53.092;8.800;2024-03-06T14:07:58;29.17;;;18.65;;
19814;SDS011;10067;53.092;8.800;2024-03-06T14:10:24;28.60;;;18.00;;
19814;SDS011;10067;53.092;8.800;2024-03-06T14:12:51;27.23;;;19.20;;
19814;SDS011;10067;53.092;8.800;2024-03-06T14:15:19;31.50;;;19.23;;
19814;SDS011;10067;53.092;8.800;2024-03-06T14:17:46;33.92;;;19.52;;
19814;SDS011;10067;53.092;8.800;2024-03-06T14:20:13;25.73;;;18.10;;
19814;SDS011;10067;53.092;8.800;2024-03-06T14:22:40;29.33;;;17.98;;
19814;SDS011;10067;53.092;8.800;2024-03-06T14:25:07;28.88;;;18.80;;
19814;SDS011;10067;53.092;8.800;2024-03-06T14:27:34;28.13;;;18.48;;
19814;SDS011;10067;53.092;8.800;2024-03-06T14:30:01;32.30;;;20.13;;